sensor_id;sensor_type;location;lat;lon;timestamp;temperature;humidity
5274;DHT22;56254;50.956;7.010;2022-09-16T00:01:19;15.90;97.40
5274;DHT22;56254;50.956;7.010;2022-09-16T00:03:45;15.80;97.30
5274;DHT22;56254;50.956;7.010;2022-09-16T00:06:25;15.90;97.80
5274;DHT22;56254;50.956;7.010;2022-09-16T00:08:54;15.80;98.10
5274;DHT22;56254;50.956;7.010;2022-09-16T00:11:20;15.80;98.00
5274;DHT22;56254;50.956;7.010;2022-09-16T00:13:46;15.80;98.60
5274;DHT22;56254;50.956;7.010;2022-09-16T00:16:17;15.70;99.10
5274;DHT22;56254;50.956;7.010;2022-09-16T00:18:43;15.70;98.60
5274;DHT22;56254;50.956;7.010;2022-09-16T00:21:10;15.70;99.00
5274;DHT22;56254;50.956;7.010;2022-09-16T00:23:37;15.80;99.00
5274;DHT22;56254;50.956;7.010;2022-09-16T00:26:03;15.90;98.40
5274;DHT22;56254;50.956;7.010;2022-09-16T00:28:29;15.90;98.10
5274;DHT22;56254;50.956;7.010;2022-09-16T00:31:00;15.90;97.80
5274;DHT22;56254;50.956;7.010;2022-09-16T00:33:26;15.90;97.70
5274;DHT22;56254;50.956;7.010;2022-09-16T00:36:03;15.90;97.30
5274;DHT22;56254;50.956;7.010;2022-09-16T00:38:30;15.90;97.10
5274;DHT22;56254;50.956;7.010;2022-09-16T00:40:56;15.90;97.10
5274;DHT22;56254;50.956;7.010;2022-09-16T00:43:23;15.90;96.80
5274;DHT22;56254;50.956;7.010;2022-09-16T00:46:01;15.90;96.50
5274;DHT22;56254;50.956;7.010;2022-09-16T00:48:29;15.90;96.10
5274;DHT22;56254;50.956;7.010;2022-09-16T00:51:02;15.80;95.90
5274;DHT22;56254;50.956;7.010;2022-09-16T00:53:33;15.80;95.80
5274;DHT22;56254;50.956;7.010;2022-09-16T00:56:03;15.80;95.00
5274;DHT22;56254;50.956;7.010;2022-09-16T00:58:46;15.80;95.20
5274;DHT22;56254;50.956;7.010;2022-09-16T01:01:13;15.70;95.10
5274;DHT22;56254;50.956;7.010;2022-09-16T01:04:04;15.60;95.70
5274;DHT22;56254;50.956;7.010;2022-09-16T01:06:34;15.60;96.20
5274;DHT22;56254;50.956;7.010;2022-09-16T01:09:01;15.60;96.50
5274;DHT22;56254;50.956;7.010;2022-09-16T01:11:28;15.50;96.60
5274;DHT22;56254;50.956;7.010;2022-09-16T01:13:54;15.50;96.90
5274;DHT22;56254;50.956;7.010;2022-09-16T01:16:45;15.50;97.00
5274;DHT22;56254;50.956;7.010;2022-09-16T01:33:42;15.40;99.30
5274;DHT22;56254;50.956;7.010;2022-09-16T01:36:30;15.50;98.60
5274;DHT22;56254;50.956;7.010;2022-09-16T01:49:42;15.40;99.40
5274;DHT22;56254;50.956;7.010;2022-09-16T01:52:22;15.50;99.30
5274;DHT22;56254;50.956;7.010;2022-09-16T01:55:02;15.40;99.60
5274;DHT22;56254;50.956;7.010;2022-09-16T01:57:53;15.60;99.80
5274;DHT22;56254;50.956;7.010;2022-09-16T02:00:20;15.60;99.50
5274;DHT22;56254;50.956;7.010;2022-09-16T02:03:12;15.40;99.90
5274;DHT22;56254;50.956;7.010;2022-09-16T02:05:47;15.60;99.90
5274;DHT22;56254;50.956;7.010;2022-09-16T02:08:22;15.60;99.90
5274;DHT22;56254;50.956;7.010;2022-09-16T02:10:54;15.70;99.80
5274;DHT22;56254;50.956;7.010;2022-09-16T02:13:46;15.70;99.90
5274;DHT22;56254;50.956;7.010;2022-09-16T02:16:23;15.80;99.60
5274;DHT22;56254;50.956;7.010;2022-09-16T02:18:55;15.80;99.80
5274;DHT22;56254;50.956;7.010;2022-09-16T02:21:23;15.70;99.90
5274;DHT22;56254;50.956;7.010;2022-09-16T02:23:51;15.90;99.70
5274;DHT22;56254;50.956;7.010;2022-09-16T02:26:22;15.90;99.90
5274;DHT22;56254;50.956;7.010;2022-09-16T02:28:52;15.80;99.90
5274;DHT22;56254;50.956;7.010;2022-09-16T02:31:23;15.80;99.90
5274;DHT22;56254;50.956;7.010;2022-09-16T02:33:54;15.70;99.90
5274;DHT22;56254;50.956;7.010;2022-09-16T02:36:23;15.70;99.90
5274;DHT22;56254;50.956;7.010;2022-09-16T02:39:06;15.80;99.90
5274;DHT22;56254;50.956;7.010;2022-09-16T02:41:35;15.90;99.90
5274;DHT22;56254;50.956;7.010;2022-09-16T02:44:01;15.80;99.90
5274;DHT22;56254;50.956;7.010;2022-09-16T02:50:00;15.90;99.90
5274;DHT22;56254;50.956;7.010;2022-09-16T02:52:35;15.80;99.90
5274;DHT22;56254;50.956;7.010;2022-09-16T02:57:37;15.80;99.90
5274;DHT22;56254;50.956;7.010;2022-09-16T03:00:04;15.80;99.90
5274;DHT22;56254;50.956;7.010;2022-09-16T03:02:34;15.80;99.90
5274;DHT22;56254;50.956;7.010;2022-09-16T03:05:00;15.70;99.90
5274;DHT22;56254;50.956;7.010;2022-09-16T03:07:26;15.80;99.90
5274;DHT22;56254;50.956;7.010;2022-09-16T03:09:52;15.90;99.90
5274;DHT22;56254;50.956;7.010;2022-09-16T03:12:39;15.70;99.90
5274;DHT22;56254;50.956;7.010;2022-09-16T03:26:35;15.50;99.90
5274;DHT22;56254;50.956;7.010;2022-09-16T03:31:58;15.50;99.90
5274;DHT22;56254;50.956;7.010;2022-09-16T03:34:40;15.60;99.90
5274;DHT22;56254;50.956;7.010;2022-09-16T03:37:11;15.70;99.90
5274;DHT22;56254;50.956;7.010;2022-09-16T03:39:37;15.70;99.90
5274;DHT22;56254;50.956;7.010;2022-09-16T03:42:06;15.50;99.90
5274;DHT22;56254;50.956;7.010;2022-09-16T03:44:37;15.60;99.90
5274;DHT22;56254;50.956;7.010;2022-09-16T03:47:07;15.50;99.90
5274;DHT22;56254;50.956;7.010;2022-09-16T03:49:33;15.50;99.90
5274;DHT22;56254;50.956;7.010;2022-09-16T03:51:59;15.50;99.90
5274;DHT22;56254;50.956;7.010;2022-09-16T03:54:26;15.40;99.90
5274;DHT22;56254;50.956;7.010;2022-09-16T03:56:52;15.50;99.90
5274;DHT22;56254;50.956;7.010;2022-09-16T03:59:18;15.40;99.90
5274;DHT22;56254;50.956;7.010;2022-09-16T04:01:43;15.50;99.90
5274;DHT22;56254;50.956;7.010;2022-09-16T04:04:10;15.60;99.90
5274;DHT22;56254;50.956;7.010;2022-09-16T04:06:37;15.60;99.90
5274;DHT22;56254;50.956;7.010;2022-09-16T04:09:03;15.60;99.90
5274;DHT22;56254;50.956;7.010;2022-09-16T04:11:30;15.60;99.90
5274;DHT22;56254;50.956;7.010;2022-09-16T04:13:57;15.40;99.90
5274;DHT22;56254;50.956;7.010;2022-09-16T04:16:24;15.40;99.90
5274;DHT22;56254;50.956;7.010;2022-09-16T04:18:50;15.40;99.90
5274;DHT22;56254;50.956;7.010;2022-09-16T04:21:16;15.40;99.90
5274;DHT22;56254;50.956;7.010;2022-09-16T04:23:42;15.30;99.90
5274;DHT22;56254;50.956;7.010;2022-09-16T04:26:09;15.20;99.90
5274;DHT22;56254;50.956;7.010;2022-09-16T04:28:38;15.10;99.90
5274;DHT22;56254;50.956;7.010;2022-09-16T04:31:06;15.40;99.90
5274;DHT22;56254;50.956;7.010;2022-09-16T04:33:34;15.40;99.90
5274;DHT22;56254;50.956;7.010;2022-09-16T04:36:09;15.40;99.90
5274;DHT22;56254;50.956;7.010;2022-09-16T04:38:38;15.40;99.90
5274;DHT22;56254;50.956;7.010;2022-09-16T04:41:25;15.30;99.90
5274;DHT22;56254;50.956;7.010;2022-09-16T04:43:53;15.20;99.90
5274;DHT22;56254;50.956;7.010;2022-09-16T04:46:19;15.20;99.90
5274;DHT22;56254;50.956;7.010;2022-09-16T04:48:49;15.10;99.90
5274;DHT22;56254;50.956;7.010;2022-09-16T04:51:16;15.00;99.90
5274;DHT22;56254;50.956;7.010;2022-09-16T04:53:42;15.00;99.90
5274;DHT22;56254;50.956;7.010;2022-09-16T04:56:13;14.80;99.90
5274;DHT22;56254;50.956;7.010;2022-09-16T04:58:46;14.90;99.90
5274;DHT22;56254;50.956;7.010;2022-09-16T05:01:17;14.80;99.90
5274;DHT22;56254;50.956;7.010;2022-09-16T05:03:45;14.90;99.90
5274;DHT22;56254;50.956;7.010;2022-09-16T05:06:26;14.80;99.90
5274;DHT22;56254;50.956;7.010;2022-09-16T05:08:53;14.90;99.90
5274;DHT22;56254;50.956;7.010;2022-09-16T05:11:22;14.90;99.90
5274;DHT22;56254;50.956;7.010;2022-09-16T05:13:49;15.00;99.90
5274;DHT22;56254;50.956;7.010;2022-09-16T05:16:18;14.90;99.90
5274;DHT22;56254;50.956;7.010;2022-09-16T05:18:45;14.90;99.90
5274;DHT22;56254;50.956;7.010;2022-09-16T05:21:18;14.90;99.90
5274;DHT22;56254;50.956;7.010;2022-09-16T05:23:46;14.80;99.90
5274;DHT22;56254;50.956;7.010;2022-09-16T05:26:20;14.70;99.90
5274;DHT22;56254;50.956;7.010;2022-09-16T05:28:47;14.80;99.90
5274;DHT22;56254;50.956;7.010;2022-09-16T05:31:22;14.80;99.90
5274;DHT22;56254;50.956;7.010;2022-09-16T05:36:23;14.70;99.90
5274;DHT22;56254;50.956;7.010;2022-09-16T05:38:50;14.80;99.90
5274;DHT22;56254;50.956;7.010;2022-09-16T05:41:16;14.90;99.90
5274;DHT22;56254;50.956;7.010;2022-09-16T05:43:42;14.90;99.90
5274;DHT22;56254;50.956;7.010;2022-09-16T05:46:12;15.00;99.90
5274;DHT22;56254;50.956;7.010;2022-09-16T05:48:40;15.20;99.90
5274;DHT22;56254;50.956;7.010;2022-09-16T05:51:06;15.20;99.90
5274;DHT22;56254;50.956;7.010;2022-09-16T05:53:33;15.30;99.90
5274;DHT22;56254;50.956;7.010;2022-09-16T05:56:26;15.30;99.90
5274;DHT22;56254;50.956;7.010;2022-09-16T05:58:53;15.30;99.90
5274;DHT22;56254;50.956;7.010;2022-09-16T06:01:21;15.40;99.90
5274;DHT22;56254;50.956;7.010;2022-09-16T06:03:49;15.50;99.90
5274;DHT22;56254;50.956;7.010;2022-09-16T06:06:32;15.60;99.90
5274;DHT22;56254;50.956;7.010;2022-09-16T06:09:09;15.60;99.50
5274;DHT22;56254;50.956;7.010;2022-09-16T06:11:39;15.50;99.20
5274;DHT22;56254;50.956;7.010;2022-09-16T06:14:07;15.70;99.00
5274;DHT22;56254;50.956;7.010;2022-09-16T06:16:33;15.60;98.30
5274;DHT22;56254;50.956;7.010;2022-09-16T06:19:02;15.60;97.50
5274;DHT22;56254;50.956;7.010;2022-09-16T06:21:28;15.70;98.30
5274;DHT22;56254;50.956;7.010;2022-09-16T06:23:55;15.80;97.50
5274;DHT22;56254;50.956;7.010;2022-09-16T06:26:23;16.00;97.00
5274;DHT22;56254;50.956;7.010;2022-09-16T06:28:50;16.10;96.60
5274;DHT22;56254;50.956;7.010;2022-09-16T06:31:21;16.30;96.10
5274;DHT22;56254;50.956;7.010;2022-09-16T06:33:47;16.30;94.90
5274;DHT22;56254;50.956;7.010;2022-09-16T06:36:20;16.30;94.90
5274;DHT22;56254;50.956;7.010;2022-09-16T06:38:47;16.20;95.30
5274;DHT22;56254;50.956;7.010;2022-09-16T06:41:14;16.20;95.00
5274;DHT22;56254;50.956;7.010;2022-09-16T06:43:40;16.20;94.80
5274;DHT22;56254;50.956;7.010;2022-09-16T06:46:12;16.20;94.90
5274;DHT22;56254;50.956;7.010;2022-09-16T06:48:40;16.20;95.00
5274;DHT22;56254;50.956;7.010;2022-09-16T06:51:11;16.20;95.40
5274;DHT22;56254;50.956;7.010;2022-09-16T06:53:37;16.30;94.70
5274;DHT22;56254;50.956;7.010;2022-09-16T06:56:05;16.50;94.70
5274;DHT22;56254;50.956;7.010;2022-09-16T06:58:33;16.60;93.30
5274;DHT22;56254;50.956;7.010;2022-09-16T07:01:10;16.50;93.30
5274;DHT22;56254;50.956;7.010;2022-09-16T07:03:37;16.50;93.50
5274;DHT22;56254;50.956;7.010;2022-09-16T07:06:03;16.50;93.60
5274;DHT22;56254;50.956;7.010;2022-09-16T07:08:30;16.60;93.40
5274;DHT22;56254;50.956;7.010;2022-09-16T07:11:02;16.70;93.30
5274;DHT22;56254;50.956;7.010;2022-09-16T07:13:28;16.70;93.00
5274;DHT22;56254;50.956;7.010;2022-09-16T07:16:01;17.00;92.40
5274;DHT22;56254;50.956;7.010;2022-09-16T07:18:28;17.00;91.70
5274;DHT22;56254;50.956;7.010;2022-09-16T07:21:10;17.00;91.80
5274;DHT22;56254;50.956;7.010;2022-09-16T07:23:37;16.80;93.10
5274;DHT22;56254;50.956;7.010;2022-09-16T07:26:05;17.00;92.30
5274;DHT22;56254;50.956;7.010;2022-09-16T07:28:32;17.00;92.20
5274;DHT22;56254;50.956;7.010;2022-09-16T07:31:02;17.00;92.00
5274;DHT22;56254;50.956;7.010;2022-09-16T07:33:29;16.90;91.60
5274;DHT22;56254;50.956;7.010;2022-09-16T07:36:00;17.00;92.30
5274;DHT22;56254;50.956;7.010;2022-09-16T07:38:28;17.20;91.50
5274;DHT22;56254;50.956;7.010;2022-09-16T07:40:54;17.10;91.70
5274;DHT22;56254;50.956;7.010;2022-09-16T07:43:20;17.00;91.70
5274;DHT22;56254;50.956;7.010;2022-09-16T07:45:46;17.00;91.20
5274;DHT22;56254;50.956;7.010;2022-09-16T07:48:19;17.00;91.70
5274;DHT22;56254;50.956;7.010;2022-09-16T07:53:22;17.00;91.90
5274;DHT22;56254;50.956;7.010;2022-09-16T07:55:48;17.00;92.00
5274;DHT22;56254;50.956;7.010;2022-09-16T07:58:14;17.10;91.50
5274;DHT22;56254;50.956;7.010;2022-09-16T08:00:41;17.00;92.00
5274;DHT22;56254;50.956;7.010;2022-09-16T08:03:07;17.30;91.70
5274;DHT22;56254;50.956;7.010;2022-09-16T08:05:32;17.20;91.80
5274;DHT22;56254;50.956;7.010;2022-09-16T08:07:58;17.30;92.00
5274;DHT22;56254;50.956;7.010;2022-09-16T08:10:24;17.50;92.00
5274;DHT22;56254;50.956;7.010;2022-09-16T08:12:49;18.00;91.50
5274;DHT22;56254;50.956;7.010;2022-09-16T08:15:16;18.20;89.00
5274;DHT22;56254;50.956;7.010;2022-09-16T08:17:41;18.20;89.40
5274;DHT22;56254;50.956;7.010;2022-09-16T08:20:07;18.20;89.30
5274;DHT22;56254;50.956;7.010;2022-09-16T08:22:33;18.20;89.00
5274;DHT22;56254;50.956;7.010;2022-09-16T08:24:59;18.00;90.10
5274;DHT22;56254;50.956;7.010;2022-09-16T08:27:25;18.00;90.60
5274;DHT22;56254;50.956;7.010;2022-09-16T08:29:51;18.00;89.80
5274;DHT22;56254;50.956;7.010;2022-09-16T08:32:16;18.00;89.50
5274;DHT22;56254;50.956;7.010;2022-09-16T08:34:42;18.00;89.90
5274;DHT22;56254;50.956;7.010;2022-09-16T08:37:07;18.20;88.20
5274;DHT22;56254;50.956;7.010;2022-09-16T08:39:34;18.40;87.40
5274;DHT22;56254;50.956;7.010;2022-09-16T08:42:28;18.30;87.80
5274;DHT22;56254;50.956;7.010;2022-09-16T08:50:40;18.40;86.40
5274;DHT22;56254;50.956;7.010;2022-09-16T08:53:14;18.40;86.40
5274;DHT22;56254;50.956;7.010;2022-09-16T08:55:47;18.60;85.60
5274;DHT22;56254;50.956;7.010;2022-09-16T08:58:17;18.60;85.70
5274;DHT22;56254;50.956;7.010;2022-09-16T09:00:46;18.50;85.30
5274;DHT22;56254;50.956;7.010;2022-09-16T09:05:53;18.60;84.80
5274;DHT22;56254;50.956;7.010;2022-09-16T09:13:50;18.60;84.50
5274;DHT22;56254;50.956;7.010;2022-09-16T09:26:52;18.10;86.10
5274;DHT22;56254;50.956;7.010;2022-09-16T09:29:41;18.20;83.90
5274;DHT22;56254;50.956;7.010;2022-09-16T09:35:30;18.70;82.70
5274;DHT22;56254;50.956;7.010;2022-09-16T09:41:17;19.20;81.40
5274;DHT22;56254;50.956;7.010;2022-09-16T09:43:50;19.00;79.60
5274;DHT22;56254;50.956;7.010;2022-09-16T09:46:32;18.90;79.40
5274;DHT22;56254;50.956;7.010;2022-09-16T09:51:43;18.90;81.70
5274;DHT22;56254;50.956;7.010;2022-09-16T09:54:26;19.00;79.30
5274;DHT22;56254;50.956;7.010;2022-09-16T09:57:03;19.20;80.10
5274;DHT22;56254;50.956;7.010;2022-09-16T09:59:44;19.20;79.70
5274;DHT22;56254;50.956;7.010;2022-09-16T10:02:21;19.10;79.10
5274;DHT22;56254;50.956;7.010;2022-09-16T10:04:47;18.80;79.60
5274;DHT22;56254;50.956;7.010;2022-09-16T10:07:22;18.80;80.10
5274;DHT22;56254;50.956;7.010;2022-09-16T10:09:53;18.70;79.60
5274;DHT22;56254;50.956;7.010;2022-09-16T10:12:28;18.80;80.20
5274;DHT22;56254;50.956;7.010;2022-09-16T10:14:54;19.20;80.50
5274;DHT22;56254;50.956;7.010;2022-09-16T10:17:23;19.40;79.40
5274;DHT22;56254;50.956;7.010;2022-09-16T10:20:05;19.30;78.10
5274;DHT22;56254;50.956;7.010;2022-09-16T10:22:59;19.10;77.70
5274;DHT22;56254;50.956;7.010;2022-09-16T10:25:25;19.00;78.90
5274;DHT22;56254;50.956;7.010;2022-09-16T10:28:00;19.00;79.30
5274;DHT22;56254;50.956;7.010;2022-09-16T10:30:31;19.10;79.60
5274;DHT22;56254;50.956;7.010;2022-09-16T10:33:13;19.00;79.40
5274;DHT22;56254;50.956;7.010;2022-09-16T10:35:51;19.10;79.90
5274;DHT22;56254;50.956;7.010;2022-09-16T10:38:21;19.30;80.10
5274;DHT22;56254;50.956;7.010;2022-09-16T10:43:18;19.70;78.10
5274;DHT22;56254;50.956;7.010;2022-09-16T10:45:52;20.20;76.60
5274;DHT22;56254;50.956;7.010;2022-09-16T10:48:21;20.50;76.80
5274;DHT22;56254;50.956;7.010;2022-09-16T10:50:57;21.00;75.10
5274;DHT22;56254;50.956;7.010;2022-09-16T10:53:36;21.10;73.90
5274;DHT22;56254;50.956;7.010;2022-09-16T10:56:15;20.90;74.10
5274;DHT22;56254;50.956;7.010;2022-09-16T10:58:41;20.60;73.80
5274;DHT22;56254;50.956;7.010;2022-09-16T11:07:06;20.30;75.90
5274;DHT22;56254;50.956;7.010;2022-09-16T11:13:08;20.10;75.70
5274;DHT22;56254;50.956;7.010;2022-09-16T11:21:23;19.20;75.20
5274;DHT22;56254;50.956;7.010;2022-09-16T11:24:07;19.30;75.60
5274;DHT22;56254;50.956;7.010;2022-09-16T11:26:47;19.40;75.20
5274;DHT22;56254;50.956;7.010;2022-09-16T11:29:47;19.50;76.10
5274;DHT22;56254;50.956;7.010;2022-09-16T11:46:28;19.90;76.00
5274;DHT22;56254;50.956;7.010;2022-09-16T11:54:24;20.50;73.70
5274;DHT22;56254;50.956;7.010;2022-09-16T11:57:01;20.40;74.60
5274;DHT22;56254;50.956;7.010;2022-09-16T11:59:44;20.30;73.90
5274;DHT22;56254;50.956;7.010;2022-09-16T12:04:57;20.20;72.30
5274;DHT22;56254;50.956;7.010;2022-09-16T12:07:36;19.90;72.40
5274;DHT22;56254;50.956;7.010;2022-09-16T12:10:11;19.60;72.00
5274;DHT22;56254;50.956;7.010;2022-09-16T12:12:47;19.50;73.40
5274;DHT22;56254;50.956;7.010;2022-09-16T12:15:31;19.70;74.00
5274;DHT22;56254;50.956;7.010;2022-09-16T12:18:05;20.00;74.30
5274;DHT22;56254;50.956;7.010;2022-09-16T12:20:40;19.90;74.10
5274;DHT22;56254;50.956;7.010;2022-09-16T12:23:09;20.50;74.20
5274;DHT22;56254;50.956;7.010;2022-09-16T12:26:08;21.20;70.90
5274;DHT22;56254;50.956;7.010;2022-09-16T12:28:43;21.40;70.80
5274;DHT22;56254;50.956;7.010;2022-09-16T12:31:21;20.30;74.80
5274;DHT22;56254;50.956;7.010;2022-09-16T12:34:04;18.80;79.10
5274;DHT22;56254;50.956;7.010;2022-09-16T12:36:38;18.70;82.60
5274;DHT22;56254;50.956;7.010;2022-09-16T12:39:05;16.80;99.90
5274;DHT22;56254;50.956;7.010;2022-09-16T12:55:44;15.50;99.90
5274;DHT22;56254;50.956;7.010;2022-09-16T13:03:38;15.90;99.90
5274;DHT22;56254;50.956;7.010;2022-09-16T13:06:25;16.20;99.90
5274;DHT22;56254;50.956;7.010;2022-09-16T13:08:52;16.30;99.90
5274;DHT22;56254;50.956;7.010;2022-09-16T13:11:23;16.40;99.90
5274;DHT22;56254;50.956;7.010;2022-09-16T13:13:53;16.60;99.10
5274;DHT22;56254;50.956;7.010;2022-09-16T13:16:32;16.80;98.50
5274;DHT22;56254;50.956;7.010;2022-09-16T13:21:43;17.20;97.40
5274;DHT22;56254;50.956;7.010;2022-09-16T13:24:28;17.10;97.80
5274;DHT22;56254;50.956;7.010;2022-09-16T13:26:56;16.90;95.90
5274;DHT22;56254;50.956;7.010;2022-09-16T13:32:04;16.60;98.70
5274;DHT22;56254;50.956;7.010;2022-09-16T13:34:30;16.80;97.40
5274;DHT22;56254;50.956;7.010;2022-09-16T13:36:56;16.70;98.70
5274;DHT22;56254;50.956;7.010;2022-09-16T13:39:30;16.80;98.70
5274;DHT22;56254;50.956;7.010;2022-09-16T13:42:08;16.80;99.90
5274;DHT22;56254;50.956;7.010;2022-09-16T13:50:10;17.20;98.70
5274;DHT22;56254;50.956;7.010;2022-09-16T13:52:46;17.70;97.60
5274;DHT22;56254;50.956;7.010;2022-09-16T13:55:25;18.00;95.10
5274;DHT22;56254;50.956;7.010;2022-09-16T13:58:24;17.90;93.70
5274;DHT22;56254;50.956;7.010;2022-09-16T14:01:20;18.00;94.10
5274;DHT22;56254;50.956;7.010;2022-09-16T14:04:11;17.60;92.90
5274;DHT22;56254;50.956;7.010;2022-09-16T14:06:52;17.80;92.60
5274;DHT22;56254;50.956;7.010;2022-09-16T14:09:41;17.90;92.10
5274;DHT22;56254;50.956;7.010;2022-09-16T14:14:53;17.40;91.40
5274;DHT22;56254;50.956;7.010;2022-09-16T14:17:27;17.30;91.70
5274;DHT22;56254;50.956;7.010;2022-09-16T14:20:00;17.20;90.70
5274;DHT22;56254;50.956;7.010;2022-09-16T14:22:27;16.80;90.60
5274;DHT22;56254;50.956;7.010;2022-09-16T14:24:56;16.70;90.00
5274;DHT22;56254;50.956;7.010;2022-09-16T14:29:58;17.00;90.60
5274;DHT22;56254;50.956;7.010;2022-09-16T14:32:32;17.10;90.10
5274;DHT22;56254;50.956;7.010;2022-09-16T14:35:11;17.80;89.50
5274;DHT22;56254;50.956;7.010;2022-09-16T14:37:44;18.10;87.90
5274;DHT22;56254;50.956;7.010;2022-09-16T14:40:13;18.30;86.10
5274;DHT22;56254;50.956;7.010;2022-09-16T14:42:49;18.50;85.70
5274;DHT22;56254;50.956;7.010;2022-09-16T14:45:16;18.40;85.70
5274;DHT22;56254;50.956;7.010;2022-09-16T14:47:43;18.60;85.70
5274;DHT22;56254;50.956;7.010;2022-09-16T14:50:32;18.50;85.80
5274;DHT22;56254;50.956;7.010;2022-09-16T14:53:01;18.30;86.90
5274;DHT22;56254;50.956;7.010;2022-09-16T14:55:30;18.10;88.00
5274;DHT22;56254;50.956;7.010;2022-09-16T14:57:58;18.00;88.50
5274;DHT22;56254;50.956;7.010;2022-09-16T15:06:42;17.70;89.40
5274;DHT22;56254;50.956;7.010;2022-09-16T15:09:20;18.10;90.20
5274;DHT22;56254;50.956;7.010;2022-09-16T15:11:54;18.10;88.20
5274;DHT22;56254;50.956;7.010;2022-09-16T15:14:21;17.90;89.00
5274;DHT22;56254;50.956;7.010;2022-09-16T15:16:54;18.10;88.20
5274;DHT22;56254;50.956;7.010;2022-09-16T15:19:29;18.30;86.70
5274;DHT22;56254;50.956;7.010;2022-09-16T15:21:56;18.30;86.60
5274;DHT22;56254;50.956;7.010;2022-09-16T15:24:28;18.00;86.70
5274;DHT22;56254;50.956;7.010;2022-09-16T15:26:56;18.00;87.30
5274;DHT22;56254;50.956;7.010;2022-09-16T15:31:49;18.00;85.00
5274;DHT22;56254;50.956;7.010;2022-09-16T15:36:49;17.70;85.90
5274;DHT22;56254;50.956;7.010;2022-09-16T15:39:27;17.70;86.10
5274;DHT22;56254;50.956;7.010;2022-09-16T15:44:34;17.80;85.00
5274;DHT22;56254;50.956;7.010;2022-09-16T15:47:00;17.70;84.70
5274;DHT22;56254;50.956;7.010;2022-09-16T15:49:28;17.50;85.30
5274;DHT22;56254;50.956;7.010;2022-09-16T15:52:08;17.10;84.70
5274;DHT22;56254;50.956;7.010;2022-09-16T15:54:51;17.00;85.00
5274;DHT22;56254;50.956;7.010;2022-09-16T15:57:33;16.80;85.80
5274;DHT22;56254;50.956;7.010;2022-09-16T16:00:05;16.70;87.00
5274;DHT22;56254;50.956;7.010;2022-09-16T16:02:56;16.70;87.70
5274;DHT22;56254;50.956;7.010;2022-09-16T16:05:26;16.50;88.10
5274;DHT22;56254;50.956;7.010;2022-09-16T16:08:01;16.50;89.00
5274;DHT22;56254;50.956;7.010;2022-09-16T16:10:30;16.50;88.60
5274;DHT22;56254;50.956;7.010;2022-09-16T16:12:58;16.40;88.90
5274;DHT22;56254;50.956;7.010;2022-09-16T16:15:30;16.30;88.80
5274;DHT22;56254;50.956;7.010;2022-09-16T16:18:03;16.50;88.40
5274;DHT22;56254;50.956;7.010;2022-09-16T16:20:30;16.60;88.60
5274;DHT22;56254;50.956;7.010;2022-09-16T16:22:58;16.60;88.20
5274;DHT22;56254;50.956;7.010;2022-09-16T16:25:25;16.60;88.20
5274;DHT22;56254;50.956;7.010;2022-09-16T16:27:51;16.70;88.10
5274;DHT22;56254;50.956;7.010;2022-09-16T16:30:17;16.70;87.40
5274;DHT22;56254;50.956;7.010;2022-09-16T16:32:44;16.70;87.80
5274;DHT22;56254;50.956;7.010;2022-09-16T16:35:10;16.80;87.50
5274;DHT22;56254;50.956;7.010;2022-09-16T16:37:36;16.80;87.30
5274;DHT22;56254;50.956;7.010;2022-09-16T16:40:03;16.60;87.00
5274;DHT22;56254;50.956;7.010;2022-09-16T16:42:28;16.40;87.60
5274;DHT22;56254;50.956;7.010;2022-09-16T16:44:54;16.50;87.60
5274;DHT22;56254;50.956;7.010;2022-09-16T16:47:21;16.50;87.90
5274;DHT22;56254;50.956;7.010;2022-09-16T16:49:48;16.40;88.10
5274;DHT22;56254;50.956;7.010;2022-09-16T16:52:15;16.50;88.50
5274;DHT22;56254;50.956;7.010;2022-09-16T16:54:40;16.30;88.80
5274;DHT22;56254;50.956;7.010;2022-09-16T16:57:08;16.20;89.00
5274;DHT22;56254;50.956;7.010;2022-09-16T16:59:34;16.20;89.60
5274;DHT22;56254;50.956;7.010;2022-09-16T17:01:59;16.10;89.90
5274;DHT22;56254;50.956;7.010;2022-09-16T17:04:25;15.90;90.30
5274;DHT22;56254;50.956;7.010;2022-09-16T17:06:51;15.90;90.70
5274;DHT22;56254;50.956;7.010;2022-09-16T17:09:17;15.80;91.10
5274;DHT22;56254;50.956;7.010;2022-09-16T17:11:57;15.70;91.40
5274;DHT22;56254;50.956;7.010;2022-09-16T17:14:28;15.60;91.70
5274;DHT22;56254;50.956;7.010;2022-09-16T17:16:54;15.70;91.90
5274;DHT22;56254;50.956;7.010;2022-09-16T17:19:21;15.60;91.70
5274;DHT22;56254;50.956;7.010;2022-09-16T17:21:48;15.60;92.00
5274;DHT22;56254;50.956;7.010;2022-09-16T17:24:22;15.50;92.20
5274;DHT22;56254;50.956;7.010;2022-09-16T17:26:47;15.60;92.30
5274;DHT22;56254;50.956;7.010;2022-09-16T17:29:14;15.50;92.80
5274;DHT22;56254;50.956;7.010;2022-09-16T17:31:40;15.20;94.60
5274;DHT22;56254;50.956;7.010;2022-09-16T17:34:11;15.20;95.10
5274;DHT22;56254;50.956;7.010;2022-09-16T17:36:38;15.10;95.00
5274;DHT22;56254;50.956;7.010;2022-09-16T17:39:07;15.20;95.10
5274;DHT22;56254;50.956;7.010;2022-09-16T17:41:33;15.10;95.60
5274;DHT22;56254;50.956;7.010;2022-09-16T17:44:04;15.00;95.50
5274;DHT22;56254;50.956;7.010;2022-09-16T17:46:30;15.00;96.00
5274;DHT22;56254;50.956;7.010;2022-09-16T17:49:07;14.90;95.80
5274;DHT22;56254;50.956;7.010;2022-09-16T17:51:34;14.90;95.80
5274;DHT22;56254;50.956;7.010;2022-09-16T17:54:00;14.80;96.20
5274;DHT22;56254;50.956;7.010;2022-09-16T17:56:27;14.80;96.50
5274;DHT22;56254;50.956;7.010;2022-09-16T17:58:53;14.90;96.20
5274;DHT22;56254;50.956;7.010;2022-09-16T18:01:24;14.70;96.40
5274;DHT22;56254;50.956;7.010;2022-09-16T18:03:53;14.80;96.40
5274;DHT22;56254;50.956;7.010;2022-09-16T18:06:30;14.80;96.80
5274;DHT22;56254;50.956;7.010;2022-09-16T18:09:01;14.70;96.80
5274;DHT22;56254;50.956;7.010;2022-09-16T18:11:27;14.80;97.20
5274;DHT22;56254;50.956;7.010;2022-09-16T18:13:55;14.60;97.50
5274;DHT22;56254;50.956;7.010;2022-09-16T18:16:20;14.50;98.20
5274;DHT22;56254;50.956;7.010;2022-09-16T18:18:50;14.40;98.90
5274;DHT22;56254;50.956;7.010;2022-09-16T18:21:17;14.50;99.00
5274;DHT22;56254;50.956;7.010;2022-09-16T18:23:44;14.40;99.00
5274;DHT22;56254;50.956;7.010;2022-09-16T18:26:12;14.30;99.70
5274;DHT22;56254;50.956;7.010;2022-09-16T18:28:43;14.30;99.90
5274;DHT22;56254;50.956;7.010;2022-09-16T18:31:14;14.20;99.90
5274;DHT22;56254;50.956;7.010;2022-09-16T18:33:40;14.20;99.90
5274;DHT22;56254;50.956;7.010;2022-09-16T18:36:09;14.30;99.90
5274;DHT22;56254;50.956;7.010;2022-09-16T18:38:35;14.30;99.90
5274;DHT22;56254;50.956;7.010;2022-09-16T18:41:13;14.10;99.90
5274;DHT22;56254;50.956;7.010;2022-09-16T18:43:43;14.10;99.90
5274;DHT22;56254;50.956;7.010;2022-09-16T18:46:15;14.10;99.90
5274;DHT22;56254;50.956;7.010;2022-09-16T18:48:42;14.10;99.90
5274;DHT22;56254;50.956;7.010;2022-09-16T18:51:24;14.10;99.90
5274;DHT22;56254;50.956;7.010;2022-09-16T18:53:51;14.00;99.90
5274;DHT22;56254;50.956;7.010;2022-09-16T18:56:19;13.90;99.90
5274;DHT22;56254;50.956;7.010;2022-09-16T18:58:46;13.90;99.90
5274;DHT22;56254;50.956;7.010;2022-09-16T19:01:26;14.00;99.90
5274;DHT22;56254;50.956;7.010;2022-09-16T19:03:55;14.00;99.90